Seabulk Arctic — WCY7054 — position and weather

sailwx.info

Track history (hours):
 
Tides and Currents Weather Stations Pressure Air Temp Water Temp Dewpoint Dewpoint Depression Visibility Wind Speed Wind Dir Waves Ship Positions

Seabulk Arctic

Owner: LIGHTSHIP TANKERS IV LLC, FORT LAUDERDALE, FL. More information available from US FCC via Universal Licensing System and Coast Guard Vessel Documentation Center.

Last reported at 2017-Feb-19 19:26 UTC. Time now 2017-Feb-19 21:05 UTC.
Position N 29°35' W 093°15'.

Type: Tanker. MMSI: 366826000.

Date/timePositionNaut miles runAvg speedWind from/ knotsBaromVisibWave heightAir tempDewpointWater temp
2017-Feb-19 19:26N 29°35' W 093°15'3 0.5
2017-Feb-19 13:20N 29°32' W 093°14'911.5
2017-Feb-19 12:32N 29°23' W 093°12'1312.9
2017-Feb-19 11:31N 29°10' W 093°12'1212.8
2017-Feb-19 10:33N 28°57' W 093°12'1313.3
2017-Feb-19 09:33N 28°44' W 093°12'1313.2
2017-Feb-19 08:33N 28°32' W 093°08'1413.9
2017-Feb-19 07:33N 28°20' W 092°58'1413.7
2017-Feb-19 06:33N 28°09' W 092°49'1313.4
2017-Feb-19 05:33N 27°59' W 092°40'1413.6
2017-Feb-19 04:33N 27°48' W 092°30'2813.7
2017-Feb-19 02:33N 27°30' W 092°07'1913.6
2017-Feb-19 01:07N 27°18' W 091°50'17 8.0
2017-Feb-18 23:00N 27°06' W 091°36'3720.7 130 / 91011.8 5.4
2017-Feb-18 21:13N 27°01' W 090°55'31114.0
2017-Feb-17 23:00N 25°48' W 085°18'28712.1 110 / 91015.010.8
2017-Feb-16 23:24N 25°27' W 080°01'1011.9
2017-Feb-16 22:34N 25°37' W 080°00'1111.2
2017-Feb-16 21:34N 25°48' W 079°60'1111.4
2017-Feb-16 20:34N 25°59' W 079°60'9 9.0
2017-Feb-16 19:33N 26°06' W 080°07'0 0.4
2017-Feb-16 18:33N 26°06' W 080°07'0 0.0
2017-Feb-16 17:33N 26°06' W 080°07'0 0.0
2017-Feb-16 16:33N 26°06' W 080°07'0 0.0
2017-Feb-16 15:33N 26°06' W 080°07'0 0.0
2017-Feb-16 14:30N 26°06' W 080°07'0 0.0
2017-Feb-16 13:33N 26°06' W 080°07'0 0.0
2017-Feb-16 12:33N 26°06' W 080°07'0 0.0
2017-Feb-16 11:33N 26°06' W 080°07'0 0.0
2017-Feb-16 10:24N 26°06' W 080°07'0 0.0
2017-Feb-16 09:27N 26°06' W 080°07'0 0.0
2017-Feb-16 08:27N 26°06' W 080°07'0 0.0
2017-Feb-16 07:27N 26°06' W 080°07'0 0.0
2017-Feb-16 06:27N 26°06' W 080°07'0 0.0
2017-Feb-16 05:30N 26°06' W 080°07'0 0.0
2017-Feb-16 04:30N 26°06' W 080°07'0 0.0
2017-Feb-16 03:33N 26°06' W 080°07'0 0.0
2017-Feb-16 02:33N 26°06' W 080°07'0 0.0
2017-Feb-16 01:33N 26°06' W 080°07'0 0.0
2017-Feb-16 00:33N 26°06' W 080°07'0 0.0
2017-Feb-15 23:33N 26°06' W 080°07'0 0.0
2017-Feb-15 22:33N 26°06' W 080°07'0 0.0
2017-Feb-15 21:33N 26°06' W 080°07'0 0.0
2017-Feb-15 20:24N 26°06' W 080°07'0 0.0
2017-Feb-15 19:27N 26°06' W 080°07'0 0.0
2017-Feb-15 18:27N 26°06' W 080°07'0 0.0
2017-Feb-15 17:27N 26°06' W 080°07'0 0.0
2017-Feb-15 16:30N 26°06' W 080°07'3 3.1
2017-Feb-15 15:33N 26°06' W 080°04'6 6.0
2017-Feb-15 14:33N 26°03' W 079°58'1212.5
2017-Feb-15 13:33N 25°51' W 079°58'1414.3
2017-Feb-15 12:33N 25°37' W 079°54'1515.0
2017-Feb-15 11:33N 25°22' W 079°57'18014.3
2017-Feb-14 23:00N 24°12' W 083°00'34114.2 080 / 91013.210.8 22.0
2017-Feb-13 23:00N 26°48' W 088°36'30512.4 040 / 51018.210.8 20.0
2017-Feb-12 22:29N 29°42' W 093°20'6 6.8
2017-Feb-12 21:34N 29°48' W 093°21'8 7.7
2017-Feb-12 20:34N 29°56' W 093°20'7 7.0
2017-Feb-12 19:34N 30°03' W 093°20'7 6.6
2017-Feb-12 18:34N 30°09' W 093°20'2 1.6
2017-Feb-12 17:31N 30°11' W 093°19'0 0.0
2017-Feb-12 16:31N 30°11' W 093°19'0 0.0
2017-Feb-12 15:31N 30°11' W 093°19'0 0.0
2017-Feb-12 14:31N 30°11' W 093°19'0 0.0
2017-Feb-12 13:31N 30°11' W 093°19'0 0.0
2017-Feb-12 12:31N 30°11' W 093°19'0 0.0
2017-Feb-12 11:31N 30°11' W 093°19'0 0.0
2017-Feb-12 10:28N 30°11' W 093°19'0 0.0
2017-Feb-12 09:31N 30°11' W 093°19'0 0.0
2017-Feb-12 08:31N 30°11' W 093°19'0 0.0
2017-Feb-12 07:31N 30°11' W 093°19'0 0.0
2017-Feb-12 06:31N 30°11' W 093°19'0 0.0
2017-Feb-12 05:28N 30°11' W 093°19'0 0.0
2017-Feb-12 04:31N 30°11' W 093°19'0 0.0
2017-Feb-12 03:31N 30°11' W 093°19'0 0.0
2017-Feb-12 02:31N 30°11' W 093°19'0 0.0
2017-Feb-12 01:31N 30°11' W 093°19'0 0.0
2017-Feb-12 00:31N 30°11' W 093°19'0 0.0
2017-Feb-11 23:31N 30°11' W 093°19'0 0.0
2017-Feb-11 22:31N 30°11' W 093°19'0 0.0
2017-Feb-11 21:31N 30°11' W 093°19'0 0.0
2017-Feb-11 20:31N 30°11' W 093°19'0 0.0
2017-Feb-11 19:34N 30°11' W 093°19'0 0.0
2017-Feb-11 18:34N 30°11' W 093°19'0 0.0
2017-Feb-11 17:31N 30°11' W 093°19'0 0.0
2017-Feb-11 16:34N 30°11' W 093°19'0 0.0
2017-Feb-11 15:31N 30°11' W 093°19'0 0.0
2017-Feb-11 14:34N 30°11' W 093°19'0 0.0
2017-Feb-11 13:34N 30°11' W 093°19'0 0.0
2017-Feb-11 12:34N 30°11' W 093°19'0 0.0
2017-Feb-11 11:34N 30°11' W 093°19'0 0.0
2017-Feb-11 10:34N 30°11' W 093°19'0 0.1
2017-Feb-11 09:33N 30°11' W 093°19'2 1.9
2017-Feb-11 08:33N 30°09' W 093°20'8 7.7
2017-Feb-11 07:33N 30°01' W 093°20'8 8.1
2017-Feb-11 06:33N 29°53' W 093°21'19610.6
2017-Feb-10 12:00N 27°00' W 091°36'   110 / 191023.010.8 18.0
Track history (hours):
 
Tides and Currents Weather Stations Pressure Air Temp Water Temp Dewpoint Dewpoint Depression Visibility Wind Speed Wind Dir Waves Ship Positions

Seabulk Arctic

Owner: LIGHTSHIP TANKERS IV LLC, FORT LAUDERDALE, FL. More information available from US FCC via Universal Licensing System and Coast Guard Vessel Documentation Center.

Last reported at 2017-Feb-19 19:26 UTC. Time now 2017-Feb-19 21:05 UTC.
Position N 29°35' W 093°15'.

Type: Tanker. MMSI: 366826000.

Date/timePositionNaut miles runAvg speedWind from/ knotsBaromVisibWave heightAir tempDewpointWater temp
2017-Feb-19 19:26N 29°35' W 093°15'3 0.5
2017-Feb-19 13:20N 29°32' W 093°14'911.5
2017-Feb-19 12:32N 29°23' W 093°12'1312.9
2017-Feb-19 11:31N 29°10' W 093°12'1212.8
2017-Feb-19 10:33N 28°57' W 093°12'1313.3
2017-Feb-19 09:33N 28°44' W 093°12'1313.2
2017-Feb-19 08:33N 28°32' W 093°08'1413.9
2017-Feb-19 07:33N 28°20' W 092°58'1413.7
2017-Feb-19 06:33N 28°09' W 092°49'1313.4
2017-Feb-19 05:33N 27°59' W 092°40'1413.6
2017-Feb-19 04:33N 27°48' W 092°30'2813.7
2017-Feb-19 02:33N 27°30' W 092°07'1913.6
2017-Feb-19 01:07N 27°18' W 091°50'17 8.0
2017-Feb-18 23:00N 27°06' W 091°36'3720.7 130 / 91011.8 5.4
2017-Feb-18 21:13N 27°01' W 090°55'31114.0
2017-Feb-17 23:00N 25°48' W 085°18'28712.1 110 / 91015.010.8
2017-Feb-16 23:24N 25°27' W 080°01'1011.9
2017-Feb-16 22:34N 25°37' W 080°00'1111.2
2017-Feb-16 21:34N 25°48' W 079°60'1111.4
2017-Feb-16 20:34N 25°59' W 079°60'9 9.0
2017-Feb-16 19:33N 26°06' W 080°07'0 0.4
2017-Feb-16 18:33N 26°06' W 080°07'0 0.0
2017-Feb-16 17:33N 26°06' W 080°07'0 0.0
2017-Feb-16 16:33N 26°06' W 080°07'0 0.0
2017-Feb-16 15:33N 26°06' W 080°07'0 0.0
2017-Feb-16 14:30N 26°06' W 080°07'0 0.0
2017-Feb-16 13:33N 26°06' W 080°07'0 0.0
2017-Feb-16 12:33N 26°06' W 080°07'0 0.0
2017-Feb-16 11:33N 26°06' W 080°07'0 0.0
2017-Feb-16 10:24N 26°06' W 080°07'0 0.0
2017-Feb-16 09:27N 26°06' W 080°07'0 0.0
2017-Feb-16 08:27N 26°06' W 080°07'0 0.0
2017-Feb-16 07:27N 26°06' W 080°07'0 0.0
2017-Feb-16 06:27N 26°06' W 080°07'0 0.0
2017-Feb-16 05:30N 26°06' W 080°07'0 0.0
2017-Feb-16 04:30N 26°06' W 080°07'0 0.0
2017-Feb-16 03:33N 26°06' W 080°07'0 0.0
2017-Feb-16 02:33N 26°06' W 080°07'0 0.0
2017-Feb-16 01:33N 26°06' W 080°07'0 0.0
2017-Feb-16 00:33N 26°06' W 080°07'0 0.0
2017-Feb-15 23:33N 26°06' W 080°07'0 0.0
2017-Feb-15 22:33N 26°06' W 080°07'0 0.0
2017-Feb-15 21:33N 26°06' W 080°07'0 0.0
2017-Feb-15 20:24N 26°06' W 080°07'0 0.0
2017-Feb-15 19:27N 26°06' W 080°07'0 0.0
2017-Feb-15 18:27N 26°06' W 080°07'0 0.0
2017-Feb-15 17:27N 26°06' W 080°07'0 0.0
2017-Feb-15 16:30N 26°06' W 080°07'3 3.1
2017-Feb-15 15:33N 26°06' W 080°04'6 6.0
2017-Feb-15 14:33N 26°03' W 079°58'1212.5
2017-Feb-15 13:33N 25°51' W 079°58'1414.3
2017-Feb-15 12:33N 25°37' W 079°54'1515.0
2017-Feb-15 11:33N 25°22' W 079°57'18014.3
2017-Feb-14 23:00N 24°12' W 083°00'34114.2 080 / 91013.210.8 22.0
2017-Feb-13 23:00N 26°48' W 088°36'30512.4 040 / 51018.210.8 20.0
2017-Feb-12 22:29N 29°42' W 093°20'6 6.8
2017-Feb-12 21:34N 29°48' W 093°21'8 7.7
2017-Feb-12 20:34N 29°56' W 093°20'7 7.0
2017-Feb-12 19:34N 30°03' W 093°20'7 6.6
2017-Feb-12 18:34N 30°09' W 093°20'2 1.6
2017-Feb-12 17:31N 30°11' W 093°19'0 0.0
2017-Feb-12 16:31N 30°11' W 093°19'0 0.0
2017-Feb-12 15:31N 30°11' W 093°19'0 0.0
2017-Feb-12 14:31N 30°11' W 093°19'0 0.0
2017-Feb-12 13:31N 30°11' W 093°19'0 0.0
2017-Feb-12 12:31N 30°11' W 093°19'0 0.0
2017-Feb-12 11:31N 30°11' W 093°19'0 0.0
2017-Feb-12 10:28N 30°11' W 093°19'0 0.0
2017-Feb-12 09:31N 30°11' W 093°19'0 0.0
2017-Feb-12 08:31N 30°11' W 093°19'0 0.0
2017-Feb-12 07:31N 30°11' W 093°19'0 0.0
2017-Feb-12 06:31N 30°11' W 093°19'0 0.0
2017-Feb-12 05:28N 30°11' W 093°19'0 0.0
2017-Feb-12 04:31N 30°11' W 093°19'0 0.0
2017-Feb-12 03:31N 30°11' W 093°19'0 0.0
2017-Feb-12 02:31N 30°11' W 093°19'0 0.0
2017-Feb-12 01:31N 30°11' W 093°19'0 0.0
2017-Feb-12 00:31N 30°11' W 093°19'0 0.0
2017-Feb-11 23:31N 30°11' W 093°19'0 0.0
2017-Feb-11 22:31N 30°11' W 093°19'0 0.0
2017-Feb-11 21:31N 30°11' W 093°19'0 0.0
2017-Feb-11 20:31N 30°11' W 093°19'0 0.0
2017-Feb-11 19:34N 30°11' W 093°19'0 0.0
2017-Feb-11 18:34N 30°11' W 093°19'0 0.0
2017-Feb-11 17:31N 30°11' W 093°19'0 0.0
2017-Feb-11 16:34N 30°11' W 093°19'0 0.0
2017-Feb-11 15:31N 30°11' W 093°19'0 0.0
2017-Feb-11 14:34N 30°11' W 093°19'0 0.0
2017-Feb-11 13:34N 30°11' W 093°19'0 0.0
2017-Feb-11 12:34N 30°11' W 093°19'0 0.0
2017-Feb-11 11:34N 30°11' W 093°19'0 0.0
2017-Feb-11 10:34N 30°11' W 093°19'0 0.1
2017-Feb-11 09:33N 30°11' W 093°19'2 1.9
2017-Feb-11 08:33N 30°09' W 093°20'8 7.7
2017-Feb-11 07:33N 30°01' W 093°20'8 8.1
2017-Feb-11 06:33N 29°53' W 093°21'19610.6
2017-Feb-10 12:00N 27°00' W 091°36'   110 / 191023.010.8 18.0

Dump ship's entire track history